createdAt,value
2023-01-29T00:00:38.292Z,6.35
2023-01-29T00:03:23.993Z,5.78
2023-01-29T00:06:10.544Z,6.18
2023-01-29T00:08:57.264Z,5.72
2023-01-29T00:11:43.416Z,6.03
2023-01-29T00:14:29.245Z,5.68
2023-01-29T00:17:15.389Z,5.75
2023-01-29T00:20:01.531Z,6.68
2023-01-29T00:22:47.620Z,5.75
2023-01-29T00:25:33.318Z,6.28
2023-01-29T00:28:19.406Z,5.28
2023-01-29T00:31:16.038Z,5.40
2023-01-29T00:34:03.679Z,4.88
2023-01-29T00:36:49.847Z,5.00
2023-01-29T00:39:47.381Z,4.85
2023-01-29T00:42:52.170Z,5.60
2023-01-29T00:45:38.690Z,6.00
2023-01-29T00:48:24.926Z,5.20
2023-01-29T00:51:10.566Z,5.40
2023-01-29T00:53:58.358Z,5.95
2023-01-29T00:56:44.131Z,7.05
2023-01-29T00:59:30.107Z,6.10
2023-01-29T01:02:35.226Z,6.68
2023-01-29T01:05:23.107Z,5.63
2023-01-29T01:08:29.208Z,5.88
2023-01-29T01:11:16.428Z,6.65
2023-01-29T01:14:02.276Z,5.90
2023-01-29T01:16:49.131Z,6.13
2023-01-29T01:19:35.622Z,5.93
2023-01-29T01:22:21.647Z,5.93
2023-01-29T01:25:07.809Z,6.18
2023-01-29T01:30:44.844Z,6.35
2023-01-29T01:33:30.642Z,6.45
2023-01-29T01:36:17.214Z,6.32
2023-01-29T01:39:03.545Z,5.80
2023-01-29T01:41:49.225Z,6.60
2023-01-29T01:45:04.567Z,7.70
2023-01-29T01:48:01.541Z,6.15
2023-01-29T01:50:54.121Z,7.78
2023-01-29T01:53:43.177Z,6.77
2023-01-29T01:56:38.521Z,6.88
2023-01-29T01:59:24.310Z,7.40
2023-01-29T02:02:28.590Z,6.28
2023-01-29T02:05:33.913Z,6.22
2023-01-29T02:08:56.647Z,6.03
2023-01-29T02:11:42.623Z,6.32
2023-01-29T02:14:28.595Z,6.55
2023-01-29T02:17:19.224Z,5.78
2023-01-29T02:20:27.710Z,6.50
2023-01-29T02:23:27.262Z,6.55
2023-01-29T02:26:23.282Z,6.47
2023-01-29T02:29:35.462Z,6.00
2023-01-29T02:32:24.286Z,6.30
2023-01-29T02:35:34.727Z,6.00
2023-01-29T02:38:58.335Z,6.00
2023-01-29T02:42:03.320Z,6.93
2023-01-29T02:44:55.403Z,5.53
2023-01-29T02:48:01.894Z,6.68
2023-01-29T02:51:10.918Z,5.55
2023-01-29T02:54:23.902Z,6.22
2023-01-29T02:57:50.371Z,5.90
2023-01-29T03:00:40.443Z,6.15
2023-01-29T03:03:31.522Z,5.57
2023-01-29T03:06:26.249Z,5.50
2023-01-29T03:09:35.099Z,6.00
2023-01-29T03:12:50.295Z,5.60
2023-01-29T03:15:47.026Z,6.07
2023-01-29T03:19:11.672Z,5.53
2023-01-29T03:22:01.279Z,6.25
2023-01-29T03:25:10.546Z,6.38
2023-01-29T03:28:21.622Z,5.90
2023-01-29T03:31:29.331Z,7.13
2023-01-29T03:34:24.799Z,6.22
2023-01-29T03:37:22.211Z,6.25
2023-01-29T03:40:09.733Z,5.45
2023-01-29T03:43:02.901Z,5.88
2023-01-29T03:46:14.395Z,6.10
2023-01-29T03:49:14.350Z,6.32
2023-01-29T03:52:18.849Z,5.82
2023-01-29T03:55:21.707Z,6.10
2023-01-29T03:58:22.195Z,6.00
2023-01-29T04:01:21.657Z,5.85
2023-01-29T04:04:37.084Z,5.93
2023-01-29T04:07:26.744Z,6.15
2023-01-29T04:10:25.537Z,6.50
2023-01-29T04:13:12.980Z,6.18
2023-01-29T04:16:01.789Z,6.53
2023-01-29T04:19:10.661Z,6.22
2023-01-29T04:22:22.700Z,6.90
2023-01-29T04:25:16.380Z,6.70
2023-01-29T04:28:47.627Z,7.00
2023-01-29T04:31:44.379Z,6.95
2023-01-29T04:34:37.396Z,6.60
2023-01-29T04:37:50.579Z,6.85
2023-01-29T04:40:54.966Z,6.28
2023-01-29T04:43:55.973Z,6.72
2023-01-29T04:47:05.107Z,6.13
2023-01-29T04:50:14.536Z,6.43
2023-01-29T04:53:09.244Z,6.07
2023-01-29T04:56:06.418Z,6.07
2023-01-29T04:58:56.323Z,6.13
2023-01-29T05:01:43.922Z,6.63
2023-01-29T05:04:32.474Z,6.50
2023-01-29T05:07:20.128Z,6.32
2023-01-29T05:10:07.828Z,6.07
2023-01-29T05:13:01.272Z,6.40
2023-01-29T05:16:24.163Z,6.47
2023-01-29T05:19:12.281Z,6.53
2023-01-29T05:21:58.915Z,6.65
2023-01-29T05:24:44.968Z,6.63
2023-01-29T05:27:54.424Z,6.10
2023-01-29T05:30:40.385Z,6.13
2023-01-29T05:33:28.414Z,6.20
2023-01-29T05:36:14.086Z,6.03
2023-01-29T05:38:59.854Z,6.70
2023-01-29T05:41:45.717Z,6.95
2023-01-29T05:44:31.566Z,6.70
2023-01-29T05:47:20.836Z,8.25
2023-01-29T05:50:07.302Z,7.13
2023-01-29T05:52:59.683Z,6.60
2023-01-29T05:55:47.007Z,5.88
2023-01-29T05:58:33.842Z,6.07
2023-01-29T06:01:21.896Z,6.10
2023-01-29T06:04:07.504Z,6.00
2023-01-29T06:06:53.337Z,6.93
2023-01-29T06:09:38.984Z,7.40
2023-01-29T06:12:24.800Z,6.28
2023-01-29T06:15:11.967Z,7.15
2023-01-29T06:17:58.015Z,6.90
2023-01-29T06:20:43.616Z,5.93
2023-01-29T06:23:31.316Z,6.25
2023-01-29T06:26:17.142Z,6.78
2023-01-29T06:29:02.985Z,8.07
2023-01-29T06:31:48.817Z,6.85
2023-01-29T06:34:34.984Z,6.68
2023-01-29T06:37:20.530Z,6.20
2023-01-29T06:40:07.130Z,7.82
2023-01-29T06:42:52.988Z,6.50
2023-01-29T06:45:38.664Z,6.60
2023-01-29T06:48:25.511Z,6.63
2023-01-29T06:51:11.784Z,6.68
2023-01-29T06:53:57.920Z,6.88
2023-01-29T06:56:43.969Z,6.22
2023-01-29T06:59:29.784Z,6.68
2023-01-29T07:02:16.058Z,6.63
2023-01-29T07:05:02.977Z,6.35
2023-01-29T07:07:48.582Z,6.55
2023-01-29T07:10:34.246Z,6.72
2023-01-29T07:13:20.124Z,6.68
2023-01-29T07:16:07.024Z,6.47
2023-01-29T07:18:53.001Z,6.15
2023-01-29T07:21:38.861Z,6.38
2023-01-29T07:24:24.953Z,6.55
2023-01-29T07:27:10.846Z,7.20
2023-01-29T07:29:56.621Z,6.53
2023-01-29T07:32:42.476Z,6.75
2023-01-29T07:35:28.271Z,6.07
2023-01-29T07:38:14.113Z,7.30
2023-01-29T07:41:03.008Z,6.68
2023-01-29T07:43:48.917Z,6.95
2023-01-29T07:46:34.561Z,7.63
2023-01-29T07:49:20.615Z,7.38
2023-01-29T07:52:06.393Z,7.95
2023-01-29T07:54:52.065Z,7.88
2023-01-29T07:57:38.771Z,8.45
2023-01-29T08:00:24.429Z,7.68
2023-01-29T08:03:16.103Z,7.38
2023-01-29T08:06:05.022Z,7.30
2023-01-29T08:08:57.626Z,6.97
2023-01-29T08:11:43.966Z,8.32
2023-01-29T08:14:29.751Z,9.68
2023-01-29T08:17:16.039Z,7.47
2023-01-29T08:20:03.236Z,7.28
2023-01-29T08:22:50.073Z,7.13
2023-01-29T08:25:36.628Z,7.18
2023-01-29T08:28:22.766Z,7.53
2023-01-29T08:31:16.475Z,9.63
2023-01-29T08:34:02.313Z,8.35
2023-01-29T08:36:48.255Z,8.05
2023-01-29T08:39:34.644Z,7.55
2023-01-29T08:42:20.595Z,7.75
2023-01-29T08:45:07.149Z,7.88
2023-01-29T08:47:52.869Z,8.05
2023-01-29T08:50:38.770Z,7.97
2023-01-29T08:53:24.998Z,7.53
2023-01-29T08:56:11.118Z,8.20
2023-01-29T08:58:58.300Z,7.40
2023-01-29T09:01:44.194Z,8.18
2023-01-29T09:04:29.940Z,8.73
2023-01-29T09:07:15.690Z,7.25
2023-01-29T09:10:01.966Z,14.07
2023-01-29T09:12:48.081Z,8.02
2023-01-29T09:15:33.773Z,7.63
2023-01-29T09:18:22.144Z,6.63
2023-01-29T09:21:08.372Z,7.40
2023-01-29T09:23:54.157Z,8.98
2023-01-29T09:26:40.264Z,7.95
2023-01-29T09:29:26.191Z,8.77
2023-01-29T09:32:12.019Z,8.25
2023-01-29T09:34:57.986Z,9.20
2023-01-29T09:37:48.096Z,7.32
2023-01-29T09:41:04.652Z,7.07
2023-01-29T09:43:55.192Z,7.55
2023-01-29T09:46:43.818Z,6.47
2023-01-29T09:49:35.653Z,8.05
2023-01-29T09:52:28.181Z,8.27
2023-01-29T09:55:45.504Z,9.95
2023-01-29T09:58:36.179Z,9.10
2023-01-29T10:01:38.727Z,20.80
2023-01-29T10:04:40.941Z,17.80
2023-01-29T10:07:36.994Z,28.35
2023-01-29T10:10:41.718Z,30.85
2023-01-29T10:13:57.256Z,11.85
2023-01-29T10:16:43.045Z,8.88
2023-01-29T10:20:07.748Z,7.18
2023-01-29T10:23:07.333Z,7.68
2023-01-29T10:25:54.249Z,8.95
2023-01-29T10:28:46.512Z,9.27
2023-01-29T10:31:36.613Z,10.02
2023-01-29T10:34:48.750Z,11.20
2023-01-29T10:37:43.629Z,10.32
2023-01-29T10:40:38.571Z,11.43
2023-01-29T10:43:33.302Z,7.40
2023-01-29T10:47:06.972Z,8.70
2023-01-29T10:50:04.526Z,8.82
2023-01-29T10:53:08.407Z,8.77
2023-01-29T10:56:31.848Z,7.90
2023-01-29T10:59:26.560Z,8.25
2023-01-29T11:02:16.616Z,7.07
2023-01-29T11:05:02.313Z,6.78
2023-01-29T11:07:48.592Z,9.45
2023-01-29T11:10:39.720Z,8.40
2023-01-29T11:13:31.901Z,12.80
2023-01-29T11:16:17.680Z,13.13
2023-01-29T11:19:03.628Z,7.65
2023-01-29T11:22:01.894Z,6.95
2023-01-29T11:25:08.298Z,6.97
2023-01-29T11:28:01.862Z,6.65
2023-01-29T11:30:47.793Z,11.10
2023-01-29T11:33:33.596Z,8.63
2023-01-29T11:36:38.208Z,9.73
2023-01-29T11:39:25.712Z,7.85
2023-01-29T11:42:20.109Z,7.03
2023-01-29T11:45:25.770Z,6.20
2023-01-29T11:48:17.577Z,7.15
2023-01-29T11:51:05.607Z,7.72
2023-01-29T11:54:01.122Z,6.43
2023-01-29T11:56:48.207Z,6.30
2023-01-29T11:59:39.796Z,8.00
2023-01-29T12:02:30.769Z,7.07
2023-01-29T12:05:22.607Z,7.10
2023-01-29T12:08:17.605Z,6.90
2023-01-29T12:11:13.094Z,8.07
2023-01-29T12:14:01.592Z,6.47
2023-01-29T12:16:55.411Z,6.50
2023-01-29T12:22:45.487Z,6.60
2023-01-29T12:25:52.295Z,5.95
2023-01-29T12:28:59.604Z,7.88
2023-01-29T12:31:54.524Z,6.47
2023-01-29T12:34:55.687Z,6.38
2023-01-29T12:37:52.397Z,7.20
2023-01-29T12:40:47.241Z,6.93
2023-01-29T12:43:41.352Z,6.82
2023-01-29T12:46:30.329Z,6.50
2023-01-29T12:49:24.899Z,6.93
2023-01-29T12:52:21.742Z,6.30
2023-01-29T12:55:26.725Z,6.15
2023-01-29T12:58:25.434Z,7.30
2023-01-29T13:01:19.595Z,6.50
2023-01-29T13:04:12.112Z,7.07
2023-01-29T13:07:11.908Z,6.65
2023-01-29T13:10:05.783Z,6.75
2023-01-29T13:13:00.814Z,6.22
2023-01-29T13:15:48.007Z,7.18
2023-01-29T13:18:55.269Z,7.38
2023-01-29T13:21:44.163Z,7.35
2023-01-29T13:24:40.310Z,6.85
2023-01-29T13:27:29.157Z,6.32
2023-01-29T13:30:44.582Z,14.85
2023-01-29T13:33:31.014Z,8.98
2023-01-29T13:36:25.717Z,8.07
2023-01-29T13:39:23.626Z,7.25
2023-01-29T13:42:21.492Z,7.18
2023-01-29T13:45:08.786Z,8.18
2023-01-29T13:48:17.707Z,10.32
2023-01-29T13:51:04.908Z,9.60
2023-01-29T13:53:58.069Z,8.60
2023-01-29T13:56:59.397Z,8.20
2023-01-29T13:59:50.294Z,8.52
2023-01-29T14:02:37.625Z,18.48
2023-01-29T14:05:29.789Z,21.92
2023-01-29T14:08:15.731Z,50.38
2023-01-29T14:11:13.609Z,17.02
2023-01-29T14:13:59.409Z,41.33
2023-01-29T14:16:45.267Z,20.42
2023-01-29T14:19:31.432Z,34.75
2023-01-29T14:22:22.905Z,16.30
2023-01-29T14:25:18.513Z,14.18
2023-01-29T14:28:05.685Z,10.90
2023-01-29T14:30:52.823Z,10.93
2023-01-29T14:33:41.816Z,10.45
2023-01-29T14:36:29.936Z,13.30
2023-01-29T14:39:33.138Z,13.77
2023-01-29T14:42:29.918Z,17.27
2023-01-29T14:45:22.231Z,17.83
2023-01-29T14:48:11.160Z,14.80
2023-01-29T14:50:59.527Z,16.08
2023-01-29T14:53:58.636Z,11.25
2023-01-29T14:56:57.325Z,9.63
2023-01-29T14:59:55.431Z,9.80
2023-01-29T15:02:43.979Z,8.70
2023-01-29T15:05:36.408Z,8.68
2023-01-29T15:08:30.260Z,8.88
2023-01-29T15:14:29.899Z,8.90
2023-01-29T15:17:20.020Z,9.30
2023-01-29T15:20:33.448Z,9.43
2023-01-29T15:23:34.853Z,8.43
2023-01-29T15:26:24.223Z,8.65
2023-01-29T15:29:23.357Z,9.88
2023-01-29T15:32:17.121Z,11.35
2023-01-29T15:38:05.599Z,8.98
2023-01-29T15:40:52.483Z,9.82
2023-01-29T15:43:44.099Z,9.80
2023-01-29T15:46:33.820Z,9.82
2023-01-29T15:49:36.207Z,8.93
2023-01-29T15:52:28.862Z,8.55
2023-01-29T15:55:15.684Z,9.80
2023-01-29T15:58:04.271Z,10.60
2023-01-29T16:00:54.535Z,8.68
2023-01-29T16:03:40.630Z,9.32
2023-01-29T16:06:27.120Z,8.73
2023-01-29T16:09:19.900Z,8.73
2023-01-29T16:12:05.933Z,9.10
2023-01-29T16:14:52.037Z,10.57
2023-01-29T16:17:40.965Z,9.60
2023-01-29T16:20:46.004Z,8.77
2023-01-29T16:23:35.965Z,10.98
2023-01-29T16:26:28.367Z,11.48
2023-01-29T16:29:21.885Z,7.97
2023-01-29T16:34:58.256Z,9.15
2023-01-29T16:37:49.060Z,8.48
2023-01-29T16:40:37.718Z,9.18
2023-01-29T16:43:43.744Z,9.30
2023-01-29T16:46:35.908Z,9.00
2023-01-29T16:49:31.029Z,8.77
2023-01-29T16:52:27.085Z,9.10
2023-01-29T16:55:12.957Z,10.00
2023-01-29T16:58:03.930Z,9.13
2023-01-29T17:00:53.576Z,8.88
2023-01-29T17:03:40.488Z,10.32
2023-01-29T17:06:27.375Z,9.48
2023-01-29T17:09:22.829Z,9.20
2023-01-29T17:12:17.383Z,9.00
2023-01-29T17:15:19.812Z,9.65
2023-01-29T17:18:19.426Z,9.48
2023-01-29T17:21:05.252Z,10.05
2023-01-29T17:23:51.730Z,11.48
2023-01-29T17:26:37.960Z,10.57
2023-01-29T17:29:26.841Z,11.18
2023-01-29T17:32:13.129Z,11.38
2023-01-29T17:35:00.527Z,13.02
2023-01-29T17:37:46.681Z,15.25
2023-01-29T17:40:39.693Z,16.58
2023-01-29T17:43:27.097Z,13.65
2023-01-29T17:46:17.779Z,11.77
2023-01-29T17:49:22.696Z,13.30
2023-01-29T17:52:09.180Z,12.73
2023-01-29T17:54:55.242Z,12.88
2023-01-29T17:57:41.040Z,13.68
2023-01-29T18:00:26.935Z,13.60
2023-01-29T18:03:13.405Z,12.68
2023-01-29T18:06:00.157Z,12.80
2023-01-29T18:08:45.887Z,11.10
2023-01-29T18:11:31.611Z,12.50
2023-01-29T18:14:18.105Z,13.00
2023-01-29T18:17:04.225Z,11.73
2023-01-29T18:20:15.271Z,12.57
2023-01-29T18:23:04.412Z,12.60
2023-01-29T18:25:50.456Z,12.10
2023-01-29T18:28:36.608Z,11.73
2023-01-29T18:31:22.740Z,11.63
2023-01-29T18:34:08.973Z,11.00
2023-01-29T18:36:56.142Z,12.10
2023-01-29T18:39:42.184Z,11.52
2023-01-29T18:42:31.377Z,10.95
2023-01-29T18:45:17.515Z,12.70
2023-01-29T18:48:03.914Z,11.32
2023-01-29T18:50:50.717Z,11.52
2023-01-29T18:53:36.812Z,12.10
2023-01-29T18:56:22.830Z,11.07
2023-01-29T18:59:10.637Z,11.60
2023-01-29T19:01:57.351Z,12.07
2023-01-29T19:04:43.095Z,13.90
2023-01-29T19:07:29.306Z,12.73
2023-01-29T19:10:17.084Z,12.95
2023-01-29T19:13:04.355Z,12.80
2023-01-29T19:15:51.721Z,37.95
2023-01-29T19:18:37.841Z,17.75
2023-01-29T19:21:24.687Z,12.75
2023-01-29T19:24:11.940Z,13.05
2023-01-29T19:26:58.028Z,11.48
2023-01-29T19:29:43.755Z,11.82
2023-01-29T19:32:31.913Z,12.57
2023-01-29T19:35:18.087Z,11.40
2023-01-29T19:38:04.962Z,18.08
2023-01-29T19:40:52.158Z,59.85
2023-01-29T19:43:41.019Z,35.25
2023-01-29T19:46:27.086Z,46.63
2023-01-29T19:49:13.240Z,42.38
2023-01-29T19:52:01.700Z,25.50
2023-01-29T19:54:48.090Z,19.60
2023-01-29T19:57:34.577Z,14.18
2023-01-29T20:00:21.623Z,21.70
2023-01-29T20:03:07.851Z,19.20
2023-01-29T20:05:53.787Z,17.90
2023-01-29T20:08:41.448Z,11.60
2023-01-29T20:11:27.216Z,9.95
2023-01-29T20:14:13.315Z,10.70
2023-01-29T20:16:59.297Z,9.85
2023-01-29T20:19:45.336Z,11.10
2023-01-29T20:22:31.517Z,20.65
2023-01-29T20:25:17.898Z,14.63
2023-01-29T20:28:05.931Z,12.52
2023-01-29T20:30:55.648Z,10.20
2023-01-29T20:33:41.654Z,12.68
2023-01-29T20:36:28.150Z,11.48
2023-01-29T20:39:14.085Z,11.82
2023-01-29T20:41:59.921Z,11.38
2023-01-29T20:44:45.833Z,13.32
2023-01-29T20:47:31.774Z,12.10
2023-01-29T20:50:19.999Z,12.48
2023-01-29T20:53:06.667Z,11.27
2023-01-29T20:55:52.725Z,11.15
2023-01-29T20:58:41.258Z,12.52
2023-01-29T21:01:27.291Z,11.00
2023-01-29T21:04:15.131Z,9.77
2023-01-29T21:07:00.987Z,7.68
2023-01-29T21:09:49.096Z,9.10
2023-01-29T21:12:35.705Z,7.32
2023-01-29T21:15:21.718Z,7.13
2023-01-29T21:18:11.163Z,7.70
2023-01-29T21:20:56.963Z,8.32
2023-01-29T21:23:42.955Z,7.55
2023-01-29T21:26:29.125Z,6.75
2023-01-29T21:29:15.251Z,8.35
2023-01-29T21:32:01.368Z,9.10
2023-01-29T21:34:47.671Z,9.77
2023-01-29T21:37:36.933Z,10.20
2023-01-29T21:40:26.830Z,9.90
2023-01-29T21:43:13.195Z,12.23
2023-01-29T21:46:03.005Z,9.57
2023-01-29T21:48:49.217Z,9.48
2023-01-29T21:51:35.055Z,10.20
2023-01-29T21:54:22.194Z,9.13
2023-01-29T21:57:12.693Z,9.52
2023-01-29T21:59:59.679Z,9.95
2023-01-29T22:02:46.336Z,8.30
2023-01-29T22:05:37.160Z,8.60
2023-01-29T22:08:23.222Z,9.70
2023-01-29T22:11:10.399Z,10.00
2023-01-29T22:13:56.473Z,9.95
2023-01-29T22:16:42.631Z,10.43
2023-01-29T22:19:29.642Z,9.15
2023-01-29T22:22:16.877Z,7.68
2023-01-29T22:25:03.440Z,9.88
2023-01-29T22:27:50.270Z,9.52
2023-01-29T22:30:36.173Z,10.00
2023-01-29T22:33:21.938Z,9.13
2023-01-29T22:36:08.876Z,9.43
2023-01-29T22:38:55.213Z,10.15
2023-01-29T22:41:41.242Z,9.98
2023-01-29T22:44:27.501Z,9.05
2023-01-29T22:47:13.413Z,9.57
2023-01-29T22:49:59.747Z,9.98
2023-01-29T22:52:54.194Z,10.38
2023-01-29T22:55:40.285Z,10.77
2023-01-29T22:58:36.695Z,12.27
2023-01-29T23:01:25.690Z,9.40
2023-01-29T23:04:11.577Z,8.70
2023-01-29T23:06:57.978Z,9.35
2023-01-29T23:09:44.045Z,9.88
2023-01-29T23:12:29.940Z,8.68
2023-01-29T23:15:15.864Z,8.95
2023-01-29T23:18:01.756Z,8.80
2023-01-29T23:20:49.061Z,8.00
2023-01-29T23:23:36.350Z,7.57
2023-01-29T23:26:40.841Z,10.30
2023-01-29T23:29:27.120Z,9.65
2023-01-29T23:32:20.605Z,9.63
2023-01-29T23:37:54.054Z,10.30
2023-01-29T23:40:40.002Z,9.77
2023-01-29T23:43:26.971Z,9.55
2023-01-29T23:46:13.103Z,9.43
2023-01-29T23:48:59.209Z,8.35
2023-01-29T23:51:48.057Z,8.90
2023-01-29T23:54:34.067Z,9.40
2023-01-29T23:57:21.117Z,9.07
